createdAt,value
2024-01-30T00:01:06.098Z,4.70
2024-01-30T00:03:33.274Z,4.60
2024-01-30T00:06:00.464Z,4.60
2024-01-30T00:08:28.117Z,4.60
2024-01-30T00:10:55.313Z,4.50
2024-01-30T00:13:22.660Z,4.50
2024-01-30T00:15:53.051Z,4.50
2024-01-30T00:18:20.771Z,4.50
2024-01-30T00:21:15.175Z,4.40
2024-01-30T00:24:02.960Z,4.40
2024-01-30T00:26:39.352Z,4.30
2024-01-30T00:29:21.334Z,4.30
2024-01-30T00:31:53.149Z,4.30
2024-01-30T00:37:05.991Z,4.30
2024-01-30T00:39:33.507Z,4.30
2024-01-30T00:42:03.687Z,4.30
2024-01-30T00:44:31.128Z,4.30
2024-01-30T00:46:59.009Z,4.30
2024-01-30T00:49:26.462Z,4.30
2024-01-30T00:51:56.800Z,4.30
2024-01-30T00:54:24.226Z,4.20
2024-01-30T00:56:51.772Z,4.20
2024-01-30T00:59:19.376Z,4.20
2024-01-30T01:01:49.380Z,4.20
2024-01-30T01:04:18.109Z,4.20
2024-01-30T01:06:47.049Z,4.20
2024-01-30T01:09:15.305Z,4.20
2024-01-30T01:11:54.840Z,4.20
2024-01-30T01:14:34.693Z,4.20
2024-01-30T01:17:07.538Z,4.30
2024-01-30T01:19:37.108Z,4.30
2024-01-30T01:22:17.605Z,4.40
2024-01-30T01:24:50.123Z,4.40
2024-01-30T01:27:17.759Z,4.40
2024-01-30T01:29:48.165Z,4.50
2024-01-30T01:32:20.123Z,4.40
2024-01-30T01:34:47.955Z,4.50
2024-01-30T01:37:23.356Z,4.50
2024-01-30T01:39:56.378Z,4.50
2024-01-30T01:42:23.887Z,4.50
2024-01-30T01:44:54.057Z,4.50
2024-01-30T01:49:53.614Z,4.50
2024-01-30T01:52:21.569Z,4.60
2024-01-30T01:54:52.141Z,4.50
2024-01-30T01:57:20.331Z,4.50
2024-01-30T01:59:47.885Z,4.50
2024-01-30T02:02:21.741Z,4.40
2024-01-30T02:04:52.361Z,4.40
2024-01-30T02:07:19.736Z,4.30
2024-01-30T02:09:46.991Z,4.30
2024-01-30T02:12:17.329Z,4.30
2024-01-30T02:14:50.460Z,4.10
2024-01-30T02:17:18.374Z,4.00
2024-01-30T02:19:45.979Z,4.00
2024-01-30T02:22:13.729Z,4.00
2024-01-30T02:24:41.062Z,3.90
2024-01-30T02:27:08.344Z,3.90
2024-01-30T02:29:35.589Z,3.90
2024-01-30T02:32:02.987Z,3.80
2024-01-30T02:34:30.352Z,3.80
2024-01-30T02:36:57.682Z,3.70
2024-01-30T02:39:25.132Z,3.70
2024-01-30T02:41:52.813Z,3.70
2024-01-30T02:44:20.373Z,3.60
2024-01-30T02:46:49.891Z,3.50
2024-01-30T02:49:17.139Z,3.50
2024-01-30T02:51:44.590Z,3.40
2024-01-30T02:54:13.363Z,3.30
2024-01-30T02:56:44.373Z,3.20
2024-01-30T02:59:26.680Z,3.10
2024-01-30T03:02:02.360Z,3.00
2024-01-30T03:04:33.509Z,3.00
2024-01-30T03:07:04.821Z,2.90
2024-01-30T03:09:35.138Z,2.90
2024-01-30T03:14:47.060Z,2.80
2024-01-30T03:17:19.596Z,2.90
2024-01-30T03:19:51.257Z,2.90
2024-01-30T03:25:05.873Z,2.90
2024-01-30T03:27:32.983Z,2.90
2024-01-30T03:30:00.167Z,2.80
2024-01-30T03:32:27.491Z,2.80
2024-01-30T03:34:55.354Z,2.70
2024-01-30T03:37:22.574Z,2.60
2024-01-30T03:39:49.707Z,2.60
2024-01-30T03:42:16.966Z,2.70
2024-01-30T03:44:44.266Z,2.60
2024-01-30T03:47:11.471Z,2.60
2024-01-30T03:49:38.713Z,2.60
2024-01-30T03:52:06.135Z,2.60
2024-01-30T03:54:33.481Z,2.60
2024-01-30T03:57:00.828Z,2.50
2024-01-30T03:59:34.411Z,2.60
2024-01-30T04:02:07.336Z,2.60
2024-01-30T04:04:36.853Z,2.60
2024-01-30T04:07:07.498Z,2.70
2024-01-30T04:09:34.685Z,2.70
2024-01-30T04:12:03.924Z,2.80
2024-01-30T04:14:31.212Z,2.80
2024-01-30T04:16:58.274Z,2.80
2024-01-30T04:19:25.869Z,2.90
2024-01-30T04:21:53.066Z,2.90
2024-01-30T04:24:22.857Z,3.00
2024-01-30T04:26:49.931Z,3.10
2024-01-30T04:29:17.073Z,3.20
2024-01-30T04:31:44.400Z,3.30
2024-01-30T04:34:11.526Z,3.30
2024-01-30T04:36:38.696Z,3.30
2024-01-30T04:39:05.710Z,3.40
2024-01-30T04:41:33.471Z,3.30
2024-01-30T04:44:00.744Z,3.30
2024-01-30T04:46:27.923Z,3.40
2024-01-30T04:48:55.083Z,3.40
2024-01-30T04:51:22.185Z,3.40
2024-01-30T04:53:49.233Z,3.40
2024-01-30T04:56:16.275Z,3.40
2024-01-30T04:58:43.319Z,3.40
2024-01-30T05:01:11.204Z,3.40
2024-01-30T05:03:40.869Z,3.40
2024-01-30T05:06:08.201Z,3.40
2024-01-30T05:08:37.706Z,3.40
2024-01-30T05:11:06.310Z,3.40
2024-01-30T05:13:33.836Z,3.40
2024-01-30T05:16:04.758Z,3.40
2024-01-30T05:18:32.336Z,3.40
2024-01-30T05:20:59.776Z,3.40
2024-01-30T05:23:27.007Z,3.50
2024-01-30T05:25:54.366Z,3.40
2024-01-30T05:28:24.564Z,3.40
2024-01-30T05:30:52.273Z,3.50
2024-01-30T05:33:20.900Z,3.40
2024-01-30T05:35:48.462Z,3.50
2024-01-30T05:38:18.658Z,3.60
2024-01-30T05:40:48.340Z,3.70
2024-01-30T05:43:24.198Z,3.70
2024-01-30T05:45:59.691Z,3.70
2024-01-30T05:48:26.848Z,3.70
2024-01-30T05:50:58.089Z,3.80
2024-01-30T05:53:25.725Z,3.70
2024-01-30T05:55:53.159Z,3.80
2024-01-30T05:58:20.331Z,3.80
2024-01-30T06:00:47.629Z,3.80
2024-01-30T06:03:14.794Z,3.70
2024-01-30T06:05:41.916Z,3.80
2024-01-30T06:08:09.086Z,3.70
2024-01-30T06:10:36.138Z,3.70
2024-01-30T06:13:04.357Z,3.70
2024-01-30T06:15:31.473Z,3.60
2024-01-30T06:17:58.675Z,3.70
2024-01-30T06:20:26.314Z,3.70
2024-01-30T06:22:54.138Z,3.70
2024-01-30T06:25:25.701Z,3.70
2024-01-30T06:27:55.814Z,3.80
2024-01-30T06:30:23.320Z,3.80
2024-01-30T06:32:50.956Z,3.80
2024-01-30T06:35:18.808Z,3.90
2024-01-30T06:40:33.070Z,4.00
2024-01-30T06:43:00.168Z,4.00
2024-01-30T06:45:27.335Z,4.00
2024-01-30T06:47:54.477Z,4.10
2024-01-30T06:50:21.744Z,4.10
2024-01-30T06:52:52.048Z,4.10
2024-01-30T06:55:19.727Z,4.20
2024-01-30T06:57:48.305Z,4.10
2024-01-30T07:00:16.614Z,4.20
2024-01-30T07:02:43.680Z,4.20
2024-01-30T07:05:11.172Z,4.20
2024-01-30T07:07:38.469Z,4.30
2024-01-30T07:10:06.381Z,4.30
2024-01-30T07:12:34.232Z,4.40
2024-01-30T07:15:01.332Z,4.40
2024-01-30T07:17:28.670Z,4.40
2024-01-30T07:19:56.081Z,4.50
2024-01-30T07:22:23.346Z,4.40
2024-01-30T07:24:56.045Z,4.40
2024-01-30T07:27:29.787Z,4.50
2024-01-30T07:30:07.501Z,4.50
2024-01-30T07:32:43.634Z,4.60
2024-01-30T07:35:28.845Z,4.60
2024-01-30T07:37:56.241Z,4.60
2024-01-30T07:40:32.103Z,4.60
2024-01-30T07:43:04.497Z,4.70
2024-01-30T07:45:34.870Z,4.70
2024-01-30T07:48:10.043Z,4.70
2024-01-30T07:50:40.263Z,4.80
2024-01-30T07:53:07.712Z,4.80
2024-01-30T07:55:43.395Z,4.90
2024-01-30T07:59:09.742Z,4.90
2024-01-30T08:01:44.958Z,5.00
2024-01-30T08:04:14.921Z,5.10
2024-01-30T08:06:44.457Z,5.30
2024-01-30T08:09:12.009Z,5.20
2024-01-30T08:11:39.159Z,5.30
2024-01-30T08:14:06.336Z,5.40
2024-01-30T08:16:33.549Z,5.40
2024-01-30T08:19:01.836Z,5.50
2024-01-30T08:21:28.933Z,5.60
2024-01-30T08:23:56.096Z,5.60
2024-01-30T08:26:23.150Z,5.70
2024-01-30T08:28:51.407Z,5.70
2024-01-30T08:31:18.641Z,5.70
2024-01-30T08:33:56.834Z,5.80
2024-01-30T08:40:04.817Z,5.90
2024-01-30T08:42:46.530Z,6.00
2024-01-30T08:45:14.169Z,6.10
2024-01-30T08:47:55.385Z,6.20
2024-01-30T08:50:26.069Z,6.20
2024-01-30T08:53:04.700Z,6.30
2024-01-30T08:55:32.128Z,6.40
2024-01-30T08:58:04.487Z,6.40
2024-01-30T09:00:45.192Z,6.50
2024-01-30T09:03:40.485Z,6.60
2024-01-30T09:06:17.421Z,6.70
2024-01-30T09:09:01.209Z,6.70
2024-01-30T09:11:39.050Z,6.80
2024-01-30T09:14:06.411Z,6.80
2024-01-30T09:16:50.512Z,6.90
2024-01-30T09:19:17.936Z,7.00
2024-01-30T09:21:57.089Z,7.00
2024-01-30T09:24:34.811Z,7.10
2024-01-30T09:27:07.617Z,7.10
2024-01-30T09:29:37.468Z,7.20
2024-01-30T09:32:06.667Z,7.40
2024-01-30T09:34:34.061Z,7.40
2024-01-30T09:37:01.634Z,7.50
2024-01-30T09:39:52.591Z,7.50
2024-01-30T09:42:45.798Z,7.60
2024-01-30T09:45:15.630Z,7.70
2024-01-30T09:47:56.939Z,7.80
2024-01-30T09:50:33.284Z,7.90
2024-01-30T09:53:06.615Z,8.00
2024-01-30T09:55:34.457Z,8.00
2024-01-30T09:58:01.711Z,8.10
2024-01-30T10:00:29.109Z,8.20
2024-01-30T10:02:56.494Z,8.20
2024-01-30T10:05:29.277Z,8.30
2024-01-30T10:07:58.340Z,8.30
2024-01-30T10:10:38.136Z,8.40
2024-01-30T10:13:06.489Z,8.40
2024-01-30T10:15:36.303Z,8.40
2024-01-30T10:18:09.443Z,8.40
2024-01-30T10:20:40.551Z,8.40
2024-01-30T10:23:09.064Z,8.50
2024-01-30T10:25:37.238Z,8.50
2024-01-30T10:28:04.955Z,8.50
2024-01-30T10:30:32.755Z,8.50
2024-01-30T10:33:00.286Z,8.60
2024-01-30T10:35:27.615Z,8.60
2024-01-30T10:37:58.253Z,8.60
2024-01-30T10:40:29.751Z,8.60
2024-01-30T10:43:03.805Z,8.70
2024-01-30T10:45:34.031Z,8.80
2024-01-30T10:48:02.478Z,8.80
2024-01-30T10:50:31.886Z,8.90
2024-01-30T10:53:01.089Z,9.10
2024-01-30T10:55:31.074Z,9.10
2024-01-30T10:57:58.275Z,9.20
2024-01-30T11:00:29.408Z,9.30
2024-01-30T11:02:59.761Z,9.30
2024-01-30T11:05:32.892Z,9.40
2024-01-30T11:08:11.278Z,9.40
2024-01-30T11:10:49.114Z,9.40
2024-01-30T11:13:17.178Z,9.50
2024-01-30T11:15:44.583Z,9.50
2024-01-30T11:18:11.897Z,9.50
2024-01-30T11:20:46.550Z,9.50
2024-01-30T11:23:13.962Z,9.60
2024-01-30T11:25:41.148Z,9.60
2024-01-30T11:28:16.762Z,9.70
2024-01-30T11:30:44.144Z,9.80
2024-01-30T11:33:14.266Z,9.80
2024-01-30T11:35:45.259Z,9.90
2024-01-30T11:38:15.349Z,9.90
2024-01-30T11:40:42.794Z,10.00
2024-01-30T11:43:11.012Z,10.00
2024-01-30T11:45:38.993Z,10.10
2024-01-30T11:48:07.511Z,10.10
2024-01-30T11:50:35.904Z,10.10
2024-01-30T11:53:15.580Z,10.10
2024-01-30T11:56:09.575Z,10.10
2024-01-30T11:58:49.231Z,10.00
2024-01-30T12:01:23.440Z,10.10
2024-01-30T12:04:03.350Z,10.10
2024-01-30T12:07:00.235Z,10.10
2024-01-30T12:09:29.130Z,10.10
2024-01-30T12:11:56.229Z,10.20
2024-01-30T12:14:26.258Z,10.30
2024-01-30T12:16:53.340Z,10.30
2024-01-30T12:19:25.057Z,10.40
2024-01-30T12:22:01.532Z,10.40
2024-01-30T12:24:34.587Z,10.40
2024-01-30T12:27:07.423Z,10.40
2024-01-30T12:29:36.334Z,10.40
2024-01-30T12:32:05.875Z,10.50
2024-01-30T12:34:42.347Z,10.50
2024-01-30T12:37:23.944Z,10.50
2024-01-30T12:39:55.636Z,10.50
2024-01-30T12:42:23.622Z,10.60
2024-01-30T12:44:51.153Z,10.60
2024-01-30T12:47:23.240Z,10.60
2024-01-30T12:49:50.333Z,10.60
2024-01-30T12:52:18.099Z,10.60
2024-01-30T12:54:45.289Z,10.70
2024-01-30T12:57:12.836Z,10.80
2024-01-30T12:59:40.683Z,10.80
2024-01-30T13:02:08.604Z,10.80
2024-01-30T13:04:36.295Z,10.80
2024-01-30T13:07:04.284Z,10.80
2024-01-30T13:09:32.910Z,10.80
2024-01-30T13:12:01.187Z,10.80
2024-01-30T13:14:36.668Z,10.80
2024-01-30T13:17:19.786Z,10.80
2024-01-30T13:19:52.995Z,10.80
2024-01-30T13:22:22.417Z,10.80
2024-01-30T13:24:49.663Z,10.80
2024-01-30T13:27:16.795Z,10.80
2024-01-30T13:29:43.843Z,10.80
2024-01-30T13:32:13.958Z,10.80
2024-01-30T13:34:42.455Z,10.80
2024-01-30T13:37:12.971Z,10.80
2024-01-30T13:39:40.415Z,10.80
2024-01-30T13:42:07.752Z,10.80
2024-01-30T13:44:39.160Z,10.80
2024-01-30T13:47:06.941Z,10.80
2024-01-30T13:49:34.370Z,10.80
2024-01-30T13:52:01.589Z,10.80
2024-01-30T13:54:29.034Z,10.80
2024-01-30T13:56:56.522Z,10.80
2024-01-30T13:59:27.096Z,10.80
2024-01-30T14:01:56.393Z,10.80
2024-01-30T14:04:26.231Z,10.80
2024-01-30T14:06:57.415Z,10.80
2024-01-30T14:09:33.297Z,10.80
2024-01-30T14:12:00.734Z,10.80
2024-01-30T14:14:27.912Z,10.80
2024-01-30T14:16:58.687Z,10.80
2024-01-30T14:19:26.826Z,10.80
2024-01-30T14:21:54.065Z,10.80
2024-01-30T14:24:21.072Z,10.80
2024-01-30T14:26:48.551Z,10.80
2024-01-30T14:29:15.600Z,10.80
2024-01-30T14:31:42.732Z,10.80
2024-01-30T14:34:11.868Z,10.90
2024-01-30T14:36:39.627Z,11.00
2024-01-30T14:39:07.922Z,11.00
2024-01-30T14:41:43.988Z,11.10
2024-01-30T14:44:15.434Z,11.30
2024-01-30T14:46:45.754Z,11.40
2024-01-30T14:49:18.876Z,11.30
2024-01-30T14:51:57.880Z,11.20
2024-01-30T14:54:30.989Z,11.10
2024-01-30T14:57:20.043Z,11.00
2024-01-30T14:59:51.118Z,10.90
2024-01-30T15:02:18.491Z,10.90
2024-01-30T15:04:45.833Z,10.80
2024-01-30T15:07:17.418Z,10.80
2024-01-30T15:09:47.386Z,10.70
2024-01-30T15:12:16.011Z,10.70
2024-01-30T15:14:51.745Z,10.70
2024-01-30T15:17:20.253Z,10.60
2024-01-30T15:19:50.451Z,10.70
2024-01-30T15:22:17.748Z,10.70
2024-01-30T15:24:44.867Z,10.70
2024-01-30T15:27:12.170Z,10.60
2024-01-30T15:29:42.206Z,10.70
2024-01-30T15:32:09.345Z,10.60
2024-01-30T15:34:39.905Z,10.60
2024-01-30T15:37:07.175Z,10.60
2024-01-30T15:39:34.774Z,10.60
2024-01-30T15:42:01.790Z,10.60
2024-01-30T15:44:28.817Z,10.60
2024-01-30T15:46:55.824Z,10.60
2024-01-30T15:49:23.182Z,10.50
2024-01-30T15:51:50.325Z,10.50
2024-01-30T15:54:18.592Z,10.50
2024-01-30T15:56:45.856Z,10.50
2024-01-30T15:59:13.369Z,10.50
2024-01-30T16:01:41.868Z,10.50
2024-01-30T16:04:09.054Z,10.50
2024-01-30T16:06:36.152Z,10.50
2024-01-30T16:09:04.730Z,10.50
2024-01-30T16:11:33.612Z,10.50
2024-01-30T16:14:00.607Z,10.50
2024-01-30T16:16:27.893Z,10.50
2024-01-30T16:18:55.243Z,10.40
2024-01-30T16:21:22.357Z,10.30
2024-01-30T16:23:50.123Z,10.30
2024-01-30T16:26:18.378Z,10.20
2024-01-30T16:28:45.411Z,10.10
2024-01-30T16:31:12.682Z,10.10
2024-01-30T16:33:41.052Z,10.10
2024-01-30T16:36:08.197Z,10.00
2024-01-30T16:38:35.223Z,10.00
2024-01-30T16:41:02.430Z,10.00
2024-01-30T16:43:29.714Z,9.90
2024-01-30T16:45:56.902Z,9.90
2024-01-30T16:48:24.054Z,9.90
2024-01-30T16:50:51.079Z,9.90
2024-01-30T16:53:18.105Z,9.90
2024-01-30T16:55:45.105Z,9.80
2024-01-30T16:58:12.931Z,9.80
2024-01-30T17:00:40.296Z,9.80
2024-01-30T17:03:07.583Z,9.80
2024-01-30T17:05:35.341Z,9.80
2024-01-30T17:08:02.756Z,9.70
2024-01-30T17:10:35.402Z,9.70
2024-01-30T17:13:03.962Z,9.70
2024-01-30T17:15:31.237Z,9.70
2024-01-30T17:17:58.791Z,9.60
2024-01-30T17:20:26.384Z,9.60
2024-01-30T17:22:53.578Z,9.60
2024-01-30T17:25:20.772Z,9.60
2024-01-30T17:27:48.448Z,9.50
2024-01-30T17:30:22.342Z,9.50
2024-01-30T17:32:49.610Z,9.50
2024-01-30T17:35:17.070Z,9.50
2024-01-30T17:37:44.405Z,9.50
2024-01-30T17:40:11.989Z,9.50
2024-01-30T17:42:41.914Z,9.40
2024-01-30T17:45:09.763Z,9.40
2024-01-30T17:47:36.817Z,9.40
2024-01-30T17:50:04.198Z,9.40
2024-01-30T17:52:31.313Z,9.40
2024-01-30T17:54:58.372Z,9.30
2024-01-30T17:57:25.580Z,9.30
2024-01-30T17:59:53.543Z,9.30
2024-01-30T18:02:21.015Z,9.30
2024-01-30T18:04:48.931Z,9.30
2024-01-30T18:07:16.140Z,9.80
2024-01-30T18:09:43.340Z,9.20
2024-01-30T18:12:11.875Z,9.20
2024-01-30T18:14:39.073Z,9.20
2024-01-30T18:17:06.165Z,9.10
2024-01-30T18:19:33.379Z,9.00
2024-01-30T18:22:00.901Z,8.90
2024-01-30T18:24:28.417Z,8.90
2024-01-30T18:26:56.232Z,8.80
2024-01-30T18:29:23.638Z,8.50
2024-01-30T18:31:50.888Z,8.80
2024-01-30T18:34:18.611Z,8.70
2024-01-30T18:36:48.530Z,8.70
2024-01-30T18:39:15.797Z,8.60
2024-01-30T18:41:42.868Z,8.60
2024-01-30T18:44:09.973Z,8.60
2024-01-30T18:46:37.262Z,8.60
2024-01-30T18:49:04.637Z,8.60
2024-01-30T18:51:31.834Z,8.60
2024-01-30T18:53:58.825Z,8.50
2024-01-30T18:56:25.912Z,8.50
2024-01-30T18:58:53.274Z,8.50
2024-01-30T19:01:21.469Z,8.50
2024-01-30T19:03:48.922Z,8.50
2024-01-30T19:06:16.187Z,8.50
2024-01-30T19:08:43.476Z,8.50
2024-01-30T19:11:22.743Z,8.50
2024-01-30T19:13:50.379Z,8.50
2024-01-30T19:16:17.787Z,8.40
2024-01-30T19:18:45.162Z,8.40
2024-01-30T19:21:13.511Z,8.40
2024-01-30T19:23:40.740Z,8.40
2024-01-30T19:26:10.968Z,8.30
2024-01-30T19:28:38.241Z,8.30
2024-01-30T19:31:05.994Z,8.20
2024-01-30T19:33:33.266Z,8.20
2024-01-30T19:36:03.404Z,8.20
2024-01-30T19:38:30.856Z,8.20
2024-01-30T19:40:58.969Z,8.10
2024-01-30T19:43:26.669Z,8.10
2024-01-30T19:45:54.272Z,8.10
2024-01-30T19:48:21.763Z,8.00
2024-01-30T19:50:49.005Z,8.00
2024-01-30T19:53:16.224Z,8.00
2024-01-30T19:55:43.502Z,8.10
2024-01-30T19:58:10.769Z,7.90
2024-01-30T20:00:38.215Z,7.90
2024-01-30T20:03:05.587Z,7.90
2024-01-30T20:05:33.004Z,7.90
2024-01-30T20:08:00.348Z,7.90
2024-01-30T20:10:27.627Z,7.80
2024-01-30T20:12:54.959Z,7.80
2024-01-30T20:15:22.626Z,7.90
2024-01-30T20:17:49.768Z,7.80
2024-01-30T20:20:18.158Z,7.70
2024-01-30T20:22:48.116Z,7.70
2024-01-30T20:25:19.171Z,7.70
2024-01-30T20:27:48.133Z,7.60
2024-01-30T20:30:15.464Z,7.60
2024-01-30T20:32:42.692Z,7.60
2024-01-30T20:35:10.025Z,7.60
2024-01-30T20:37:39.495Z,7.50
2024-01-30T20:40:07.501Z,7.50
2024-01-30T20:42:35.035Z,7.50
2024-01-30T20:45:09.828Z,7.50
2024-01-30T20:47:37.035Z,7.50
2024-01-30T20:50:04.333Z,7.40
2024-01-30T20:52:31.587Z,7.40
2024-01-30T20:54:58.954Z,7.40
2024-01-30T20:57:28.784Z,7.30
2024-01-30T21:00:01.366Z,7.30
2024-01-30T21:02:28.987Z,7.30
2024-01-30T21:04:58.570Z,7.20
2024-01-30T21:07:25.997Z,7.20
2024-01-30T21:09:53.342Z,7.10
2024-01-30T21:12:20.457Z,7.10
2024-01-30T21:14:48.847Z,7.10
2024-01-30T21:17:15.981Z,7.00
2024-01-30T21:19:43.130Z,7.00
2024-01-30T21:22:10.737Z,7.10
2024-01-30T21:24:37.920Z,7.00
2024-01-30T21:27:05.125Z,7.00
2024-01-30T21:29:32.306Z,6.90
2024-01-30T21:31:59.544Z,6.90
2024-01-30T21:34:26.811Z,7.00
2024-01-30T21:36:53.927Z,6.90
2024-01-30T21:39:21.161Z,6.80
2024-01-30T21:41:48.399Z,6.80
2024-01-30T21:44:15.586Z,6.80
2024-01-30T21:46:42.938Z,6.80
2024-01-30T21:49:12.863Z,6.80
2024-01-30T21:51:40.117Z,6.80
2024-01-30T21:54:07.533Z,6.70
2024-01-30T21:56:35.077Z,6.70
2024-01-30T21:59:02.159Z,6.60
2024-01-30T22:01:29.361Z,6.60
2024-01-30T22:03:56.585Z,6.60
2024-01-30T22:06:24.552Z,6.60
2024-01-30T22:08:51.711Z,6.50
2024-01-30T22:11:18.984Z,6.50
2024-01-30T22:13:46.060Z,6.50
2024-01-30T22:16:17.603Z,6.50
2024-01-30T22:18:44.713Z,6.50
2024-01-30T22:21:18.294Z,6.40
2024-01-30T22:23:47.330Z,6.40
2024-01-30T22:26:16.155Z,6.40
2024-01-30T22:28:43.313Z,6.60
2024-01-30T22:31:10.534Z,6.40
2024-01-30T22:33:38.882Z,6.40
2024-01-30T22:36:06.264Z,6.40
2024-01-30T22:38:33.701Z,6.30
2024-01-30T22:41:03.476Z,6.30
2024-01-30T22:43:33.486Z,6.30
2024-01-30T22:46:00.954Z,6.30
2024-01-30T22:48:28.291Z,6.30
2024-01-30T22:50:55.436Z,6.30
2024-01-30T22:53:22.446Z,6.30
2024-01-30T22:55:49.456Z,6.20
2024-01-30T22:58:16.501Z,6.20
2024-01-30T23:00:43.708Z,6.20
2024-01-30T23:03:13.557Z,6.20
2024-01-30T23:05:41.332Z,6.10
2024-01-30T23:08:08.373Z,6.10
2024-01-30T23:10:35.667Z,6.00
2024-01-30T23:13:03.475Z,6.00
2024-01-30T23:15:31.250Z,6.00
2024-01-30T23:17:58.897Z,5.90
2024-01-30T23:20:26.335Z,5.90
2024-01-30T23:22:54.049Z,5.90
2024-01-30T23:25:23.594Z,5.90
2024-01-30T23:27:50.771Z,5.90
2024-01-30T23:30:17.947Z,5.80
2024-01-30T23:32:47.517Z,5.70
2024-01-30T23:35:14.706Z,5.70
2024-01-30T23:37:41.939Z,5.80
2024-01-30T23:40:13.599Z,5.70
2024-01-30T23:42:41.251Z,5.70
2024-01-30T23:45:08.706Z,5.60
2024-01-30T23:47:35.801Z,5.60
2024-01-30T23:50:03.412Z,5.60
2024-01-30T23:52:31.261Z,5.60
2024-01-30T23:54:58.702Z,5.50
2024-01-30T23:57:25.952Z,5.50
2024-01-30T23:59:53.104Z,5.50
